createdAt,value
2019-05-18T00:00:55.296Z,60.00
2019-05-18T00:03:22.625Z,59.90
2019-05-18T00:05:49.566Z,60.00
2019-05-18T00:08:16.635Z,60.00
2019-05-18T00:10:43.497Z,60.00
2019-05-18T00:13:10.480Z,60.00
2019-05-18T00:15:37.451Z,60.00
2019-05-18T00:18:04.772Z,60.00
2019-05-18T00:20:32.378Z,59.90
2019-05-18T00:22:59.398Z,60.00
2019-05-18T00:25:26.745Z,60.00
2019-05-18T00:27:54.689Z,60.00
2019-05-18T00:30:22.563Z,60.00
2019-05-18T00:32:49.820Z,59.90
2019-05-18T00:35:17.311Z,60.00
2019-05-18T00:37:44.669Z,60.10
2019-05-18T00:40:11.701Z,60.00
2019-05-18T00:42:38.875Z,59.90
2019-05-18T00:45:06.846Z,60.00
2019-05-18T00:47:41.296Z,59.90
2019-05-18T00:50:04.083Z,60.00
2019-05-18T00:52:32.700Z,60.00
2019-05-18T00:55:02.052Z,60.00
2019-05-18T00:57:29.359Z,60.00
2019-05-18T00:59:57.226Z,60.00
2019-05-18T01:02:24.265Z,60.00
2019-05-18T01:04:51.413Z,60.00
2019-05-18T01:07:18.175Z,60.00
2019-05-18T01:09:44.959Z,60.70
2019-05-18T01:12:11.922Z,60.00
2019-05-18T01:14:38.618Z,60.00
2019-05-18T01:17:05.623Z,60.00
2019-05-18T01:19:32.651Z,60.00
2019-05-18T01:22:01.003Z,60.00
2019-05-18T01:24:28.980Z,60.00
2019-05-18T01:26:56.696Z,60.00
2019-05-18T01:29:24.088Z,60.00
2019-05-18T01:31:51.040Z,60.00
2019-05-18T01:34:19.300Z,60.00
2019-05-18T01:36:46.728Z,60.10
2019-05-18T01:39:22.922Z,60.00
2019-05-18T01:41:50.999Z,60.00
2019-05-18T01:44:18.240Z,60.00
2019-05-18T01:46:45.253Z,60.00
2019-05-18T01:49:12.404Z,60.00
2019-05-18T01:51:39.267Z,60.10
2019-05-18T01:54:06.590Z,60.10
2019-05-18T01:56:34.188Z,60.10
2019-05-18T01:59:02.048Z,60.00
2019-05-18T02:01:29.123Z,60.00
2019-05-18T02:03:56.153Z,60.00
2019-05-18T02:06:23.050Z,60.10
2019-05-18T02:08:50.018Z,60.00
2019-05-18T02:11:17.954Z,60.00
2019-05-18T02:13:45.245Z,60.10
2019-05-18T02:16:12.075Z,60.00
2019-05-18T02:18:41.135Z,60.00
2019-05-18T02:21:07.822Z,60.00
2019-05-18T02:23:34.528Z,60.00
2019-05-18T02:26:01.393Z,60.00
2019-05-18T02:28:28.599Z,60.10
2019-05-18T02:30:55.556Z,60.10
2019-05-18T02:33:22.389Z,60.00
2019-05-18T02:35:49.560Z,60.00
2019-05-18T02:38:16.759Z,60.10
2019-05-18T02:40:44.402Z,60.10
2019-05-18T02:43:12.003Z,60.10
2019-05-18T02:45:38.906Z,60.00
2019-05-18T02:48:05.961Z,60.00
2019-05-18T02:50:33.780Z,60.00
2019-05-18T02:53:00.977Z,60.00
2019-05-18T02:55:28.349Z,60.10
2019-05-18T02:57:55.208Z,60.10
2019-05-18T03:00:24.286Z,60.10
2019-05-18T03:02:51.764Z,60.10
2019-05-18T03:05:18.963Z,60.00
2019-05-18T03:07:46.082Z,60.10
2019-05-18T03:10:13.076Z,60.10
2019-05-18T03:12:40.054Z,60.10
2019-05-18T03:15:07.351Z,60.10
2019-05-18T03:17:34.596Z,60.10
2019-05-18T03:20:01.939Z,60.10
2019-05-18T03:22:29.593Z,60.20
2019-05-18T03:24:56.473Z,60.10
2019-05-18T03:27:23.289Z,60.20
2019-05-18T03:29:51.164Z,60.10
2019-05-18T03:32:18.138Z,60.20
2019-05-18T03:34:45.177Z,60.10
2019-05-18T03:37:12.520Z,60.10
2019-05-18T03:39:40.003Z,60.20
2019-05-18T03:42:06.936Z,60.10
2019-05-18T03:44:34.023Z,60.20
2019-05-18T03:47:00.898Z,60.20
2019-05-18T03:49:28.042Z,60.10
2019-05-18T03:51:55.136Z,60.20
2019-05-18T03:54:22.969Z,60.20
2019-05-18T03:56:49.862Z,60.20
2019-05-18T03:59:16.923Z,60.20
2019-05-18T04:01:43.948Z,60.10
2019-05-18T04:04:10.867Z,60.10
2019-05-18T04:06:37.725Z,60.10
2019-05-18T04:09:05.199Z,60.20
2019-05-18T04:11:32.215Z,60.20
2019-05-18T04:13:59.671Z,60.20
2019-05-18T04:16:27.679Z,60.00
2019-05-18T04:18:54.686Z,60.20
2019-05-18T04:21:22.023Z,60.30
2019-05-18T04:23:49.026Z,60.20
2019-05-18T04:26:16.425Z,60.30
2019-05-18T04:28:43.798Z,60.20
2019-05-18T04:31:10.552Z,60.20
2019-05-18T04:33:37.521Z,60.20
2019-05-18T04:36:05.000Z,60.20
2019-05-18T04:38:32.164Z,60.30
2019-05-18T04:40:58.948Z,60.20
2019-05-18T04:43:25.669Z,60.30
2019-05-18T04:45:52.465Z,60.20
2019-05-18T04:48:19.337Z,60.30
2019-05-18T04:50:46.221Z,60.30
2019-05-18T04:53:16.435Z,60.30
2019-05-18T04:55:43.835Z,60.30
2019-05-18T04:58:11.713Z,60.30
2019-05-18T05:00:38.757Z,60.30
2019-05-18T05:03:06.173Z,60.40
2019-05-18T05:05:33.910Z,60.40
2019-05-18T05:08:01.041Z,60.50
2019-05-18T05:10:28.164Z,60.40
2019-05-18T05:12:55.175Z,60.40
2019-05-18T05:15:23.664Z,60.40
2019-05-18T05:17:51.211Z,60.50
2019-05-18T05:20:20.105Z,60.40
2019-05-18T05:22:47.334Z,60.40
2019-05-18T05:28:04.613Z,60.50
2019-05-18T05:30:32.006Z,60.40
2019-05-18T05:32:59.160Z,60.50
2019-05-18T05:35:27.079Z,60.50
2019-05-18T05:37:54.219Z,60.50
2019-05-18T05:40:21.576Z,60.50
2019-05-18T05:42:49.017Z,60.50
2019-05-18T05:45:16.100Z,60.40
2019-05-18T05:47:43.339Z,60.50
2019-05-18T05:50:10.360Z,60.50
2019-05-18T05:52:37.407Z,60.40
2019-05-18T05:55:04.296Z,60.40
2019-05-18T05:57:31.287Z,60.50
2019-05-18T05:59:58.228Z,60.50
2019-05-18T06:02:25.300Z,60.50
2019-05-18T06:04:52.258Z,60.50
2019-05-18T06:07:19.764Z,60.40
2019-05-18T06:09:46.979Z,60.50
2019-05-18T06:12:14.018Z,60.40
2019-05-18T06:14:41.120Z,60.50
2019-05-18T06:17:08.588Z,60.60
2019-05-18T06:19:35.722Z,60.50
2019-05-18T06:22:02.604Z,60.60
2019-05-18T06:24:30.702Z,60.60
2019-05-18T06:26:57.673Z,60.60
2019-05-18T06:29:25.201Z,60.60
2019-05-18T06:31:52.124Z,60.60
2019-05-18T06:34:19.005Z,60.60
2019-05-18T06:36:45.996Z,60.60
2019-05-18T06:39:13.536Z,60.80
2019-05-18T06:41:41.401Z,60.80
2019-05-18T06:44:08.267Z,60.80
2019-05-18T06:46:37.511Z,60.80
2019-05-18T06:49:04.458Z,60.90
2019-05-18T06:51:31.421Z,60.90
2019-05-18T06:53:58.684Z,60.90
2019-05-18T06:56:26.393Z,60.90
2019-05-18T06:58:53.783Z,60.90
2019-05-18T07:01:20.729Z,60.90
2019-05-18T07:03:48.493Z,61.00
2019-05-18T07:06:15.243Z,61.10
2019-05-18T07:08:42.492Z,61.10
2019-05-18T07:11:09.524Z,61.10
2019-05-18T07:13:36.521Z,61.10
2019-05-18T07:16:03.631Z,61.10
2019-05-18T07:18:30.709Z,61.10
2019-05-18T07:20:57.705Z,61.30
2019-05-18T07:23:24.592Z,61.30
2019-05-18T07:25:52.145Z,61.30
2019-05-18T07:28:19.872Z,61.30
2019-05-18T07:30:48.062Z,61.40
2019-05-18T07:33:15.623Z,61.40
2019-05-18T07:35:44.491Z,61.50
2019-05-18T07:38:12.087Z,61.40
2019-05-18T07:40:39.601Z,61.40
2019-05-18T07:43:07.375Z,61.40
2019-05-18T07:45:34.980Z,61.50
2019-05-18T07:48:02.444Z,61.40
2019-05-18T07:50:29.994Z,61.60
2019-05-18T07:52:58.786Z,61.60
2019-05-18T07:55:25.661Z,61.60
2019-05-18T07:57:53.086Z,61.60
2019-05-18T08:00:19.961Z,61.70
2019-05-18T08:02:47.091Z,61.70
2019-05-18T08:05:14.050Z,61.80
2019-05-18T08:07:42.014Z,62.60
2019-05-18T08:10:09.597Z,61.80
2019-05-18T08:12:36.594Z,61.80
2019-05-18T08:15:03.947Z,61.80
2019-05-18T08:17:31.097Z,61.80
2019-05-18T08:19:58.424Z,61.90
2019-05-18T08:22:25.464Z,61.80
2019-05-18T08:24:52.767Z,61.80
2019-05-18T08:27:20.062Z,61.90
2019-05-18T08:29:47.216Z,61.90
2019-05-18T08:32:14.879Z,61.90
2019-05-18T08:34:42.421Z,62.00
2019-05-18T08:37:09.539Z,62.00
2019-05-18T08:39:36.567Z,62.00
2019-05-18T08:42:03.543Z,62.00
2019-05-18T08:44:30.450Z,62.00
2019-05-18T08:46:57.295Z,62.10
2019-05-18T08:49:24.245Z,62.10
2019-05-18T08:51:51.882Z,62.10
2019-05-18T08:54:18.825Z,62.10
2019-05-18T08:56:45.940Z,62.10
2019-05-18T08:59:13.459Z,62.20
2019-05-18T09:01:40.306Z,62.10
2019-05-18T09:04:07.524Z,62.10
2019-05-18T09:06:34.853Z,62.10
2019-05-18T09:09:01.883Z,62.90
2019-05-18T09:11:28.912Z,62.10
2019-05-18T09:13:56.352Z,62.20
2019-05-18T09:16:23.648Z,62.20
2019-05-18T09:18:50.737Z,61.90
2019-05-18T09:21:17.676Z,62.10
2019-05-18T09:26:34.164Z,62.20
2019-05-18T09:29:02.087Z,62.00
2019-05-18T09:31:29.616Z,62.10
2019-05-18T09:33:57.058Z,62.10
2019-05-18T09:36:23.967Z,62.10
2019-05-18T09:38:51.059Z,62.10
2019-05-18T09:41:18.779Z,62.20
2019-05-18T09:43:45.840Z,62.20
2019-05-18T09:46:12.779Z,62.10
2019-05-18T09:48:39.731Z,62.00
2019-05-18T09:51:07.064Z,62.00
2019-05-18T09:53:35.789Z,62.00
2019-05-18T09:56:03.276Z,62.00
2019-05-18T09:58:30.155Z,61.90
2019-05-18T10:00:57.432Z,62.00
2019-05-18T10:03:24.421Z,61.90
2019-05-18T10:05:51.230Z,62.00
2019-05-18T10:08:18.142Z,62.00
2019-05-18T10:10:45.242Z,62.00
2019-05-18T10:13:12.165Z,61.90
2019-05-18T10:15:40.135Z,61.90
2019-05-18T10:18:09.010Z,61.90
2019-05-18T10:20:36.221Z,61.80
2019-05-18T10:23:12.280Z,61.90
2019-05-18T10:25:31.863Z,61.90
2019-05-18T10:27:58.801Z,61.90
2019-05-18T10:30:25.701Z,61.80
2019-05-18T10:32:52.767Z,61.80
2019-05-18T10:35:19.800Z,61.80
2019-05-18T10:37:47.198Z,61.80
2019-05-18T10:40:14.686Z,61.80
2019-05-18T10:42:42.052Z,61.70
2019-05-18T10:45:09.021Z,61.70
2019-05-18T10:47:36.002Z,61.70
2019-05-18T10:50:03.390Z,61.70
2019-05-18T10:52:30.245Z,61.70
2019-05-18T10:54:57.705Z,61.60
2019-05-18T10:57:24.587Z,61.60
2019-05-18T10:59:51.516Z,61.60
2019-05-18T11:02:19.808Z,61.60
2019-05-18T11:04:47.776Z,61.60
2019-05-18T11:07:14.965Z,61.60
2019-05-18T11:09:41.949Z,61.70
2019-05-18T11:12:10.711Z,61.50
2019-05-18T11:17:28.027Z,61.50
2019-05-18T11:19:54.972Z,61.50
2019-05-18T11:22:21.900Z,61.50
2019-05-18T11:24:49.152Z,61.50
2019-05-18T11:27:16.440Z,61.50
2019-05-18T11:29:43.324Z,61.50
2019-05-18T11:32:10.303Z,61.40
2019-05-18T11:34:37.195Z,61.50
2019-05-18T11:37:05.400Z,61.40
2019-05-18T11:39:32.498Z,61.40
2019-05-18T11:41:59.661Z,61.40
2019-05-18T11:44:26.722Z,61.40
2019-05-18T11:46:53.570Z,61.30
2019-05-18T11:49:20.602Z,61.40
2019-05-18T11:51:47.996Z,61.30
2019-05-18T11:54:15.791Z,61.30
2019-05-18T11:56:45.169Z,61.30
2019-05-18T11:59:15.588Z,61.30
2019-05-18T12:01:41.327Z,61.30
2019-05-18T12:04:08.098Z,61.30
2019-05-18T12:06:35.335Z,61.30
2019-05-18T12:09:02.858Z,61.20
2019-05-18T12:11:30.017Z,61.20
2019-05-18T12:13:57.044Z,61.10
2019-05-18T12:16:24.462Z,61.20
2019-05-18T12:18:51.418Z,61.10
2019-05-18T12:21:18.832Z,61.20
2019-05-18T12:23:45.967Z,61.20
2019-05-18T12:26:12.838Z,61.10
2019-05-18T12:28:39.834Z,61.10
2019-05-18T12:31:07.603Z,61.10
2019-05-18T12:33:35.403Z,61.10
2019-05-18T12:36:02.463Z,61.10
2019-05-18T12:38:29.560Z,61.00
2019-05-18T12:40:57.038Z,61.00
2019-05-18T12:43:24.260Z,60.90
2019-05-18T12:45:51.966Z,61.00
2019-05-18T12:48:19.579Z,60.90
2019-05-18T12:50:47.336Z,60.90
2019-05-18T12:53:17.661Z,60.90
2019-05-18T12:55:45.263Z,60.90
2019-05-18T12:58:12.553Z,60.90
2019-05-18T13:00:39.772Z,60.80
2019-05-18T13:03:07.425Z,60.90
2019-05-18T13:05:34.441Z,60.90
2019-05-18T13:08:01.223Z,60.70
2019-05-18T13:10:28.513Z,60.70
2019-05-18T13:12:56.390Z,60.80
2019-05-18T13:15:23.275Z,60.80
2019-05-18T13:17:54.140Z,60.70
2019-05-18T13:20:21.230Z,60.70
2019-05-18T13:22:48.938Z,60.70
2019-05-18T13:25:16.795Z,60.60
2019-05-18T13:27:44.308Z,60.70
2019-05-18T13:30:11.510Z,60.50
2019-05-18T13:32:38.825Z,60.60
2019-05-18T13:35:07.367Z,60.50
2019-05-18T13:37:34.557Z,60.60
2019-05-18T13:40:01.699Z,60.50
2019-05-18T13:42:29.834Z,60.50
2019-05-18T13:44:56.960Z,60.60
2019-05-18T13:47:24.434Z,60.60
2019-05-18T13:49:51.612Z,60.60
2019-05-18T13:52:20.777Z,60.60
2019-05-18T13:55:02.841Z,60.40
2019-05-18T13:57:20.360Z,60.50
2019-05-18T13:59:51.328Z,60.50
2019-05-18T14:02:20.352Z,60.40
2019-05-18T14:04:48.938Z,60.40
2019-05-18T14:07:15.971Z,60.40
2019-05-18T14:09:43.330Z,60.40
2019-05-18T14:15:00.755Z,60.40
2019-05-18T14:17:27.849Z,60.30
2019-05-18T14:19:55.169Z,60.30
2019-05-18T14:22:24.117Z,60.30
2019-05-18T14:24:51.878Z,60.30
2019-05-18T14:27:18.909Z,60.30
2019-05-18T14:29:45.964Z,60.20
2019-05-18T14:35:04.980Z,60.20
2019-05-18T14:40:24.327Z,60.20
2019-05-18T14:42:51.241Z,60.10
2019-05-18T14:45:18.561Z,60.20
2019-05-18T14:47:45.555Z,60.20
2019-05-18T14:50:12.463Z,60.20
2019-05-18T14:52:39.484Z,60.20
2019-05-18T14:55:06.801Z,60.20
2019-05-18T14:57:33.669Z,60.20
2019-05-18T15:00:02.344Z,60.20
2019-05-18T15:02:29.569Z,60.20
2019-05-18T15:04:57.100Z,60.10
2019-05-18T15:07:24.961Z,60.20
2019-05-18T15:09:52.291Z,60.10
2019-05-18T15:12:19.333Z,60.10
2019-05-18T15:14:48.279Z,60.10
2019-05-18T15:17:15.974Z,60.10
2019-05-18T15:19:43.152Z,60.10
2019-05-18T15:22:10.091Z,60.10
2019-05-18T15:24:37.015Z,60.00
2019-05-18T15:27:03.946Z,60.00
2019-05-18T15:29:35.546Z,60.00
2019-05-18T15:32:03.543Z,60.00
2019-05-18T15:34:30.499Z,60.10
2019-05-18T15:37:05.592Z,60.10
2019-05-18T15:39:32.990Z,60.00
2019-05-18T15:42:02.904Z,60.00
2019-05-18T15:44:30.682Z,60.00
2019-05-18T15:46:57.692Z,60.00
2019-05-18T15:49:25.769Z,60.00
2019-05-18T15:51:53.699Z,60.00
2019-05-18T15:54:21.452Z,59.90
2019-05-18T15:56:48.480Z,60.00
2019-05-18T15:59:15.606Z,60.00
2019-05-18T16:01:43.682Z,60.00
2019-05-18T16:04:12.130Z,60.00
2019-05-18T16:06:39.374Z,60.00
2019-05-18T16:09:06.697Z,60.00
2019-05-18T16:11:33.732Z,59.90
2019-05-18T16:14:00.903Z,60.00
2019-05-18T16:16:29.811Z,60.00
2019-05-18T16:18:57.846Z,60.00
2019-05-18T16:21:26.048Z,59.90
2019-05-18T16:23:54.244Z,60.00
2019-05-18T16:26:22.151Z,60.00
2019-05-18T16:28:49.391Z,60.00
2019-05-18T16:31:17.256Z,60.00
2019-05-18T16:33:44.397Z,60.00
2019-05-18T16:36:11.397Z,60.00
2019-05-18T16:38:49.629Z,59.90
2019-05-18T16:41:17.331Z,60.00
2019-05-18T16:43:44.468Z,60.00
2019-05-18T16:46:12.703Z,60.00
2019-05-18T16:48:40.897Z,60.00
2019-05-18T16:51:10.001Z,59.90
2019-05-18T16:53:37.027Z,60.00
2019-05-18T16:56:03.826Z,60.00
2019-05-18T16:58:30.644Z,60.00
2019-05-18T17:00:57.543Z,59.90
2019-05-18T17:03:24.513Z,60.00
2019-05-18T17:05:52.149Z,59.90
2019-05-18T17:08:18.852Z,59.80
2019-05-18T17:10:45.671Z,59.90
2019-05-18T17:13:12.510Z,60.00
2019-05-18T17:15:39.474Z,60.00
2019-05-18T17:18:07.010Z,60.00
2019-05-18T17:20:33.875Z,59.90
2019-05-18T17:23:01.152Z,59.90
2019-05-18T17:25:28.659Z,60.00
2019-05-18T17:27:55.830Z,59.90
2019-05-18T17:30:22.872Z,59.90
2019-05-18T17:32:49.809Z,60.00
2019-05-18T17:35:16.699Z,60.00
2019-05-18T17:37:43.517Z,60.00
2019-05-18T17:40:10.215Z,60.00
2019-05-18T17:42:36.951Z,60.00
2019-05-18T17:45:03.962Z,60.00
2019-05-18T17:47:30.850Z,59.90
2019-05-18T17:49:58.062Z,59.90
2019-05-18T17:52:24.872Z,59.90
2019-05-18T17:54:51.693Z,60.00
2019-05-18T17:57:18.916Z,59.90
2019-05-18T17:59:45.742Z,60.00
2019-05-18T18:02:12.907Z,60.00
2019-05-18T18:04:39.799Z,60.30
2019-05-18T18:07:06.612Z,60.00
2019-05-18T18:09:33.396Z,60.00
2019-05-18T18:14:49.472Z,60.00
2019-05-18T18:17:17.831Z,60.00
2019-05-18T18:19:47.320Z,60.00
2019-05-18T18:22:14.052Z,60.00
2019-05-18T18:24:41.109Z,59.90
2019-05-18T18:27:22.735Z,60.00
2019-05-18T18:29:37.591Z,60.00
2019-05-18T18:32:04.836Z,60.00
2019-05-18T18:34:32.845Z,60.00
2019-05-18T18:36:59.735Z,60.00
2019-05-18T18:39:27.932Z,60.00
2019-05-18T18:41:57.124Z,60.00
2019-05-18T18:47:03.047Z,60.00
2019-05-18T18:49:30.564Z,60.10
2019-05-18T18:51:58.939Z,60.10
2019-05-18T18:54:27.873Z,60.70
2019-05-18T18:56:55.053Z,60.10
2019-05-18T18:59:22.040Z,60.10
2019-05-18T19:01:48.928Z,60.10
2019-05-18T19:04:15.975Z,60.10
2019-05-18T19:06:44.808Z,60.10
2019-05-18T19:09:14.549Z,60.10
2019-05-18T19:11:43.198Z,60.10
2019-05-18T19:14:12.571Z,60.20
2019-05-18T19:16:40.403Z,60.20
2019-05-18T19:19:07.870Z,60.20
2019-05-18T19:21:35.435Z,60.40
2019-05-18T19:24:04.784Z,60.20
2019-05-18T19:26:33.098Z,60.20
2019-05-18T19:29:01.336Z,60.20
2019-05-18T19:31:28.765Z,60.20
2019-05-18T19:33:57.803Z,60.20
2019-05-18T19:36:26.522Z,60.20
2019-05-18T19:38:54.025Z,60.30
2019-05-18T19:41:21.002Z,60.20
2019-05-18T19:43:48.645Z,60.30
2019-05-18T19:46:23.708Z,60.20
2019-05-18T19:48:53.099Z,60.20
2019-05-18T19:51:21.253Z,60.20
2019-05-18T19:53:48.486Z,60.20
2019-05-18T19:56:15.438Z,60.30
2019-05-18T19:58:42.335Z,60.20
2019-05-18T20:01:10.252Z,60.20
2019-05-18T20:03:37.492Z,60.30
2019-05-18T20:06:07.367Z,60.30
2019-05-18T20:08:35.043Z,60.30
2019-05-18T20:11:02.205Z,60.30
2019-05-18T20:13:29.034Z,60.20
2019-05-18T20:15:57.663Z,60.20
2019-05-18T20:18:25.964Z,60.20
2019-05-18T20:20:53.308Z,60.20
2019-05-18T20:23:21.978Z,60.20
2019-05-18T20:25:48.998Z,60.30
2019-05-18T20:28:23.903Z,60.20
2019-05-18T20:30:45.643Z,60.30
2019-05-18T20:33:13.194Z,60.40
2019-05-18T20:35:40.581Z,60.30
2019-05-18T20:38:09.717Z,60.40
2019-05-18T20:40:37.345Z,60.30
2019-05-18T20:43:25.723Z,60.10
2019-05-18T20:45:57.161Z,59.70
2019-05-18T20:48:25.404Z,60.20
2019-05-18T20:50:53.072Z,60.30
2019-05-18T20:53:20.415Z,60.30
2019-05-18T20:55:48.283Z,60.20
2019-05-18T20:58:15.536Z,60.30
2019-05-18T21:00:45.270Z,60.20
2019-05-18T21:03:15.486Z,60.30
2019-05-18T21:05:44.533Z,60.30
2019-05-18T21:08:12.412Z,60.30
2019-05-18T21:10:40.336Z,60.30
2019-05-18T21:13:10.148Z,60.30
2019-05-18T21:15:39.765Z,60.30
2019-05-18T21:18:10.499Z,60.30
2019-05-18T21:20:40.004Z,60.40
2019-05-18T21:23:07.842Z,60.20
2019-05-18T21:25:34.998Z,60.30
2019-05-18T21:28:03.789Z,60.30
2019-05-18T21:30:31.272Z,60.30
2019-05-18T21:33:00.921Z,60.40
2019-05-18T21:38:07.457Z,60.40
2019-05-18T21:40:34.974Z,60.40
2019-05-18T21:43:02.346Z,60.30
2019-05-18T21:45:32.076Z,60.30
2019-05-18T21:47:59.540Z,60.20
2019-05-18T21:50:26.901Z,60.30
2019-05-18T21:52:54.683Z,60.40
2019-05-18T21:55:22.898Z,60.30
2019-05-18T21:57:50.868Z,60.20
2019-05-18T22:00:18.267Z,60.30
2019-05-18T22:02:45.796Z,60.30
2019-05-18T22:05:15.276Z,60.40
2019-05-18T22:07:43.734Z,60.80
2019-05-18T22:10:24.759Z,60.40
2019-05-18T22:12:42.123Z,60.30
2019-05-18T22:15:12.682Z,60.30
2019-05-18T22:17:58.662Z,60.30
2019-05-18T22:20:28.780Z,60.30
2019-05-18T22:22:57.264Z,60.30
2019-05-18T22:25:24.629Z,60.30
2019-05-18T22:27:53.145Z,60.30
2019-05-18T22:30:24.297Z,60.30
2019-05-18T22:32:53.557Z,60.30
2019-05-18T22:35:22.499Z,60.40
2019-05-18T22:37:55.607Z,60.40
2019-05-18T22:40:24.725Z,58.70
2019-05-18T22:42:53.175Z,60.30
2019-05-18T22:45:21.939Z,60.40
2019-05-18T22:47:50.209Z,60.50
2019-05-18T22:50:18.437Z,60.30
2019-05-18T22:52:46.874Z,60.30
2019-05-18T22:55:15.867Z,60.30
2019-05-18T22:57:46.255Z,60.30
2019-05-18T23:00:15.801Z,60.30
2019-05-18T23:02:43.165Z,60.40
2019-05-18T23:05:12.793Z,60.40
2019-05-18T23:07:42.237Z,60.10
2019-05-18T23:10:10.701Z,60.40
2019-05-18T23:12:40.710Z,60.30
2019-05-18T23:15:09.865Z,60.40
2019-05-18T23:17:36.976Z,60.50
2019-05-18T23:20:04.030Z,60.30
2019-05-18T23:22:31.951Z,60.40
2019-05-18T23:24:59.672Z,60.40
2019-05-18T23:27:27.686Z,60.50
2019-05-18T23:29:55.297Z,60.30
2019-05-18T23:32:24.762Z,60.40
2019-05-18T23:34:53.178Z,60.40
2019-05-18T23:37:21.698Z,60.40
2019-05-18T23:39:49.997Z,60.50
2019-05-18T23:42:18.436Z,60.40
2019-05-18T23:44:45.764Z,60.50
2019-05-18T23:47:13.387Z,60.50
2019-05-18T23:49:41.455Z,60.60
2019-05-18T23:52:09.122Z,60.40
2019-05-18T23:54:37.393Z,60.40
2019-05-18T23:57:08.056Z,60.40
2019-05-18T23:59:35.387Z,60.20
